createdAt,value
2017-04-22T06:31:07.202Z,165
2017-04-22T06:31:47.817Z,160
2017-04-22T06:32:28.392Z,160
2017-04-22T06:33:08.974Z,155
2017-04-22T06:33:49.554Z,155
2017-04-22T06:34:30.135Z,150
2017-04-22T06:35:11.245Z,155
2017-04-22T06:35:52.018Z,160
2017-04-22T06:36:32.593Z,170
2017-04-22T06:37:13.355Z,180
2017-04-22T06:37:53.924Z,185
2017-04-22T06:38:34.504Z,190
2017-04-22T06:39:15.078Z,200
2017-04-22T06:39:55.759Z,205
2017-04-22T06:40:36.830Z,205
2017-04-22T06:41:17.772Z,200
2017-04-22T06:41:58.347Z,195
2017-04-22T06:42:38.987Z,190
2017-04-22T06:43:19.761Z,185
2017-04-22T06:44:00.472Z,180
2017-04-22T06:44:41.176Z,170
2017-04-22T06:45:21.832Z,165
2017-04-22T06:46:02.565Z,160
2017-04-22T06:46:43.349Z,160
2017-04-22T06:47:23.937Z,155
2017-04-22T06:48:04.513Z,155
2017-04-22T06:48:45.089Z,150
2017-04-22T06:49:25.666Z,140
2017-04-22T06:50:06.246Z,140
2017-04-22T06:50:46.838Z,140
2017-04-22T06:51:27.419Z,145
2017-04-22T06:52:08.003Z,150
2017-04-22T06:52:48.588Z,150
2017-04-22T06:53:29.225Z,150
2017-04-22T06:54:09.811Z,150
2017-04-22T06:54:50.377Z,150
2017-04-22T06:55:30.956Z,155
2017-04-22T06:56:11.538Z,145
2017-04-22T06:56:52.120Z,145
2017-04-22T06:57:32.698Z,140
2017-04-22T06:58:13.275Z,140
2017-04-22T06:58:53.854Z,140
2017-04-22T06:59:34.428Z,135
2017-04-22T07:00:14.999Z,135
2017-04-22T07:00:55.580Z,135
2017-04-22T07:01:36.161Z,135
2017-04-22T07:02:16.741Z,135
2017-04-22T07:02:57.325Z,135
2017-04-22T07:03:37.896Z,130
2017-04-22T07:04:18.489Z,135
2017-04-22T07:04:59.072Z,135
2017-04-22T07:05:39.650Z,135
2017-04-22T07:06:20.227Z,135
2017-04-22T07:07:00.807Z,140
2017-04-22T07:07:41.391Z,145
2017-04-22T07:08:21.976Z,140
2017-04-22T07:09:02.557Z,140
2017-04-22T07:09:43.136Z,140
2017-04-22T07:10:23.719Z,145
2017-04-22T07:11:04.300Z,150
2017-04-22T07:11:44.882Z,170
2017-04-22T07:12:25.462Z,170
2017-04-22T07:13:06.082Z,170
2017-04-22T07:13:46.665Z,170
2017-04-22T07:14:27.247Z,175
2017-04-22T07:15:07.835Z,175
2017-04-22T07:15:48.411Z,175
2017-04-22T07:16:29.000Z,180
2017-04-22T07:17:09.585Z,185
2017-04-22T07:17:50.160Z,190
2017-04-22T07:18:30.960Z,190
2017-04-22T07:19:11.536Z,190
2017-04-22T07:19:52.123Z,190
2017-04-22T07:20:32.813Z,190
2017-04-22T07:21:13.388Z,195
2017-04-22T07:21:53.971Z,205
2017-04-22T07:22:34.557Z,210
2017-04-22T07:23:15.137Z,215
2017-04-22T07:23:55.736Z,215
2017-04-22T07:24:36.317Z,220
2017-04-22T07:25:16.895Z,220
2017-04-22T07:25:57.479Z,215
2017-04-22T07:26:38.059Z,215
2017-04-22T07:27:18.634Z,215
2017-04-22T07:27:59.213Z,215
2017-04-22T07:28:39.805Z,215
2017-04-22T07:29:20.385Z,215
2017-04-22T07:30:00.961Z,210
2017-04-22T07:30:41.551Z,205
2017-04-22T07:31:22.151Z,205
2017-04-22T07:32:03.389Z,205
2017-04-22T07:32:43.915Z,210
2017-04-22T07:33:24.508Z,210
2017-04-22T07:34:05.088Z,215
2017-04-22T07:34:45.660Z,215
2017-04-22T07:35:26.229Z,210
2017-04-22T07:36:06.801Z,210
2017-04-22T07:36:47.367Z,205
2017-04-22T07:37:29.586Z,200
2017-04-22T07:38:10.162Z,195
2017-04-22T07:38:50.713Z,190
2017-04-22T07:39:31.281Z,190
2017-04-22T07:40:11.853Z,185
2017-04-22T07:40:52.440Z,185
2017-04-22T07:41:33.008Z,185
2017-04-22T07:42:13.576Z,185
2017-04-22T07:42:54.154Z,185
2017-04-22T07:43:34.732Z,185
2017-04-22T07:44:15.317Z,185
2017-04-22T07:44:55.893Z,180
2017-04-22T07:45:36.460Z,180
2017-04-22T07:46:17.056Z,180
2017-04-22T07:46:57.629Z,185
2017-04-22T07:47:38.210Z,190
2017-04-22T07:48:19.340Z,195
2017-04-22T07:48:59.931Z,200
2017-04-22T07:49:40.511Z,210
2017-04-22T07:50:21.089Z,215
2017-04-22T07:51:01.656Z,220
2017-04-22T07:51:42.250Z,220
2017-04-22T07:52:22.825Z,210
2017-04-22T07:53:03.414Z,205
2017-04-22T07:53:43.991Z,200
2017-04-22T07:54:24.575Z,205
2017-04-22T07:55:05.148Z,205
2017-04-22T07:55:45.733Z,210
2017-04-22T07:56:26.307Z,210
2017-04-22T07:57:06.880Z,210
2017-04-22T07:57:47.456Z,215
2017-04-22T07:58:28.041Z,220
2017-04-22T07:59:08.611Z,220
2017-04-22T07:59:49.184Z,215
2017-04-22T08:00:29.765Z,210
2017-04-22T08:01:10.345Z,205
2017-04-22T08:01:50.937Z,200
2017-04-22T08:02:31.512Z,205
2017-04-22T08:03:12.084Z,205
2017-04-22T08:03:52.661Z,205
2017-04-22T08:04:33.248Z,210
2017-04-22T08:05:13.830Z,210
2017-04-22T08:05:54.407Z,215
2017-04-22T08:06:34.976Z,210
2017-04-22T08:07:15.568Z,200
2017-04-22T08:07:56.149Z,190
2017-04-22T08:08:36.727Z,180
2017-04-22T08:09:17.311Z,180
2017-04-22T08:09:57.894Z,180
2017-04-22T08:10:38.479Z,185
2017-04-22T08:11:19.054Z,190
2017-04-22T08:12:00.351Z,190
2017-04-22T08:12:40.923Z,190
2017-04-22T08:13:21.501Z,185
2017-04-22T08:14:02.084Z,185
2017-04-22T08:14:42.660Z,195
2017-04-22T08:15:23.238Z,205
2017-04-22T08:16:03.815Z,215
2017-04-22T08:16:44.388Z,225
2017-04-22T08:17:24.956Z,240
2017-04-22T08:18:05.546Z,250
2017-04-22T08:18:46.118Z,260
2017-04-22T08:19:26.698Z,260
2017-04-22T08:20:07.272Z,255
2017-04-22T08:20:48.590Z,255
2017-04-22T08:21:29.169Z,250
2017-04-22T08:22:09.750Z,255
2017-04-22T08:22:50.326Z,255
2017-04-22T08:23:30.909Z,260
2017-04-22T08:24:11.495Z,260
2017-04-22T08:24:52.081Z,260
2017-04-22T08:25:32.655Z,250
2017-04-22T08:26:13.239Z,230
2017-04-22T08:26:53.818Z,220
2017-04-22T08:27:34.395Z,215
2017-04-22T08:28:14.979Z,230
2017-04-22T08:28:55.556Z,240
2017-04-22T08:29:36.134Z,235
2017-04-22T08:30:16.718Z,235
2017-04-22T08:30:57.305Z,245
2017-04-22T08:31:37.885Z,260
2017-04-22T08:32:18.465Z,265
2017-04-22T08:32:59.051Z,265
2017-04-22T08:33:39.628Z,265
2017-04-22T08:34:20.205Z,265
2017-04-22T08:35:00.796Z,260
2017-04-22T08:35:41.387Z,245
2017-04-22T08:36:21.989Z,235
2017-04-22T08:37:02.552Z,235
2017-04-22T08:37:43.141Z,230
2017-04-22T08:38:23.715Z,240
2017-04-22T08:39:04.294Z,255
2017-04-22T08:39:44.877Z,260
2017-04-22T08:40:25.457Z,265
2017-04-22T08:41:06.035Z,275
2017-04-22T08:41:46.626Z,285
2017-04-22T08:42:27.188Z,295
2017-04-22T08:43:07.770Z,300
2017-04-22T08:43:48.350Z,305
2017-04-22T08:44:28.930Z,315
2017-04-22T08:45:09.514Z,320
2017-04-22T08:45:50.094Z,320
2017-04-22T08:46:30.671Z,310
2017-04-22T08:47:11.243Z,295
2017-04-22T08:47:51.833Z,285
2017-04-22T08:48:32.403Z,280
2017-04-22T08:49:12.980Z,275
2017-04-22T08:49:53.555Z,275
2017-04-22T08:50:34.133Z,270
2017-04-22T08:51:14.716Z,270
2017-04-22T08:51:55.294Z,275
2017-04-22T08:52:35.875Z,280
2017-04-22T08:53:16.459Z,280
2017-04-22T08:53:57.052Z,265
2017-04-22T08:54:37.628Z,250
2017-04-22T08:55:18.209Z,250
2017-04-22T08:55:58.786Z,240
2017-04-22T08:56:39.361Z,220
2017-04-22T08:57:19.944Z,205
2017-04-22T08:58:00.518Z,205
2017-04-22T08:58:41.102Z,200
2017-04-22T08:59:21.681Z,195
2017-04-22T09:00:02.264Z,200
2017-04-22T09:00:42.847Z,205
2017-04-22T09:01:23.421Z,220
2017-04-22T09:02:04.001Z,220
2017-04-22T09:02:44.581Z,230
2017-04-22T09:03:25.165Z,240
2017-04-22T09:04:05.744Z,235
2017-04-22T09:04:46.318Z,225
2017-04-22T09:05:26.892Z,220
2017-04-22T09:06:07.478Z,215
2017-04-22T09:06:48.069Z,220
2017-04-22T09:07:28.658Z,235
2017-04-22T09:08:09.237Z,240
2017-04-22T09:08:49.816Z,240
2017-04-22T09:09:30.383Z,235
2017-04-22T09:10:10.971Z,250
2017-04-22T09:10:51.549Z,270
2017-04-22T09:11:32.137Z,280
2017-04-22T09:12:12.708Z,280
2017-04-22T09:12:53.289Z,285
2017-04-22T09:13:34.143Z,290
2017-04-22T09:14:14.738Z,290
2017-04-22T09:14:55.313Z,285
2017-04-22T09:15:36.189Z,280
2017-04-22T09:16:16.779Z,280
2017-04-22T09:16:57.415Z,290
2017-04-22T09:17:37.993Z,305
2017-04-22T09:18:18.554Z,325
2017-04-22T09:18:59.124Z,355
2017-04-22T09:19:39.701Z,395
2017-04-22T09:20:20.272Z,435
2017-04-22T09:21:00.854Z,465
2017-04-22T09:21:41.433Z,490
2017-04-22T09:22:22.016Z,495
2017-04-22T09:23:02.971Z,495
2017-04-22T09:23:43.560Z,500
2017-04-22T09:24:24.129Z,515
2017-04-22T09:25:04.701Z,530
2017-04-22T09:25:45.283Z,550
2017-04-22T09:26:25.855Z,565
2017-04-22T09:27:06.421Z,585
2017-04-22T09:27:46.992Z,590
2017-04-22T09:28:27.583Z,575
2017-04-22T09:29:08.159Z,560
2017-04-22T09:29:48.741Z,555
2017-04-22T09:30:29.313Z,550
2017-04-22T09:31:09.901Z,545
2017-04-22T09:31:50.472Z,520
2017-04-22T09:32:31.058Z,495
2017-04-22T09:33:11.631Z,470
2017-04-22T09:33:52.205Z,450
2017-04-22T09:34:32.797Z,425
2017-04-22T09:35:13.391Z,415
2017-04-22T09:35:54.098Z,415
2017-04-22T09:36:34.668Z,425
2017-04-22T09:37:15.250Z,440
2017-04-22T09:37:55.821Z,435
2017-04-22T09:38:36.388Z,430
2017-04-22T09:39:16.957Z,415
2017-04-22T09:39:57.545Z,405
2017-04-22T09:40:38.110Z,400
2017-04-22T09:41:18.696Z,400
2017-04-22T09:41:59.278Z,395
2017-04-22T09:42:39.837Z,390
2017-04-22T09:43:20.417Z,385
2017-04-22T09:44:01.000Z,390
2017-04-22T09:44:41.587Z,395
2017-04-22T09:45:22.151Z,400
2017-04-22T09:46:02.739Z,410
2017-04-22T09:46:43.320Z,415
2017-04-22T09:47:23.890Z,425
2017-04-22T09:48:04.469Z,430
2017-04-22T09:48:45.053Z,430
2017-04-22T09:49:25.626Z,425
2017-04-22T09:50:06.192Z,425
2017-04-22T09:50:46.781Z,425
2017-04-22T09:51:27.358Z,420
2017-04-22T09:52:07.936Z,415
2017-04-22T09:52:48.514Z,400
2017-04-22T09:53:29.085Z,390
2017-04-22T09:54:09.672Z,385
2017-04-22T09:54:50.422Z,375
2017-04-22T09:55:31.159Z,360
2017-04-22T09:56:11.780Z,345
2017-04-22T09:56:52.362Z,325
2017-04-22T09:57:32.941Z,310
2017-04-22T09:58:13.517Z,300
2017-04-22T09:58:54.409Z,285
2017-04-22T09:59:35.014Z,275
2017-04-22T10:00:15.591Z,275
2017-04-22T10:00:56.172Z,275
2017-04-22T10:01:36.926Z,280
2017-04-22T10:02:17.796Z,285
2017-04-22T10:02:58.615Z,290
2017-04-22T10:03:39.539Z,290
2017-04-22T10:04:20.490Z,305
2017-04-22T10:05:01.070Z,315
2017-04-22T10:05:41.642Z,335
2017-04-22T10:06:22.218Z,365
2017-04-22T10:07:02.808Z,375
2017-04-22T10:07:43.390Z,385
2017-04-22T10:08:23.976Z,405
2017-04-22T10:09:04.552Z,435
2017-04-22T10:09:45.138Z,450
2017-04-22T10:10:25.718Z,450
2017-04-22T10:11:06.446Z,450
2017-04-22T10:11:47.243Z,450
2017-04-22T10:12:27.816Z,445
2017-04-22T10:13:08.400Z,445
2017-04-22T10:13:48.983Z,440
2017-04-22T10:14:29.559Z,450
2017-04-22T10:15:10.137Z,455
2017-04-22T10:15:50.716Z,445
2017-04-22T10:16:31.306Z,440
2017-04-22T10:17:11.871Z,430
2017-04-22T10:17:52.464Z,430
2017-04-22T10:18:33.043Z,435
2017-04-22T10:19:13.633Z,435
2017-04-22T10:19:54.246Z,440
2017-04-22T10:20:34.824Z,445
2017-04-22T10:21:15.670Z,455
2017-04-22T10:21:56.516Z,450
2017-04-22T10:22:37.496Z,440
2017-04-22T10:23:18.296Z,435
2017-04-22T10:23:59.307Z,430
2017-04-22T10:24:40.143Z,420
2017-04-22T10:25:21.202Z,425
2017-04-22T10:26:02.048Z,425
2017-04-22T10:26:43.064Z,425
2017-04-22T10:27:23.639Z,445
2017-04-22T10:28:04.440Z,480
2017-04-22T10:28:45.258Z,515
2017-04-22T10:29:26.000Z,535
2017-04-22T10:30:06.967Z,550
2017-04-22T10:30:48.031Z,550
2017-04-22T10:31:29.002Z,540
2017-04-22T10:32:10.223Z,530
2017-04-22T10:32:50.821Z,505
2017-04-22T10:33:31.763Z,485
2017-04-22T10:34:12.339Z,475
2017-04-22T10:34:53.467Z,465
2017-04-22T10:35:34.053Z,460
2017-04-22T10:36:15.088Z,465
2017-04-22T10:36:56.019Z,480
2017-04-22T10:37:37.018Z,495
2017-04-22T10:38:17.600Z,515
2017-04-22T10:38:58.294Z,535
2017-04-22T10:39:39.352Z,555
2017-04-22T10:40:19.984Z,585
2017-04-22T10:41:00.901Z,595
2017-04-22T10:41:41.571Z,605
2017-04-22T10:42:22.155Z,605
2017-04-22T10:43:02.745Z,595
2017-04-22T10:43:43.483Z,585
2017-04-22T10:44:24.445Z,565
2017-04-22T10:45:05.127Z,560
2017-04-22T10:45:46.089Z,555
2017-04-22T10:46:27.114Z,550
2017-04-22T10:47:07.943Z,545
2017-04-22T10:47:48.713Z,545
2017-04-22T10:48:29.299Z,540
2017-04-22T10:49:09.885Z,535
2017-04-22T10:49:50.463Z,535
2017-04-22T10:50:31.052Z,550
2017-04-22T10:51:11.900Z,560
2017-04-22T10:51:52.484Z,565
2017-04-22T10:52:33.068Z,570
2017-04-22T10:53:13.953Z,555
2017-04-22T10:53:54.687Z,530
2017-04-22T10:54:35.270Z,535
2017-04-22T10:55:15.853Z,555
2017-04-22T10:55:57.055Z,560
2017-04-22T10:56:37.758Z,545
2017-04-22T10:57:18.495Z,540
2017-04-22T10:57:59.293Z,500
2017-04-22T10:58:40.006Z,495
2017-04-22T10:59:20.707Z,490
2017-04-22T11:00:01.284Z,495
2017-04-22T11:00:42.276Z,510
2017-04-22T11:01:23.221Z,525
2017-04-22T11:02:03.809Z,530
2017-04-22T11:02:44.508Z,545
2017-04-22T11:03:25.360Z,565
2017-04-22T11:04:05.983Z,560
2017-04-22T11:04:47.223Z,560
2017-04-22T11:05:27.940Z,565
2017-04-22T11:06:08.604Z,580
2017-04-22T11:06:49.327Z,590
2017-04-22T11:07:30.268Z,585
2017-04-22T11:08:11.385Z,585
2017-04-22T11:08:52.470Z,580
2017-04-22T11:09:33.293Z,555
2017-04-22T11:10:14.024Z,515
2017-04-22T11:10:54.639Z,495
2017-04-22T11:11:35.251Z,485
2017-04-22T11:12:16.145Z,475
2017-04-22T11:12:57.249Z,455
2017-04-22T11:13:38.053Z,435
2017-04-22T11:14:19.213Z,440
2017-04-22T11:15:00.104Z,460
2017-04-22T11:15:40.827Z,460
2017-04-22T11:16:21.760Z,450
2017-04-22T11:17:02.787Z,445
2017-04-22T11:17:43.770Z,450
2017-04-22T11:18:24.804Z,460
2017-04-22T11:19:05.680Z,460
2017-04-22T11:19:46.527Z,455
2017-04-22T11:20:27.556Z,450
2017-04-22T11:21:08.764Z,455
2017-04-22T11:21:49.552Z,470
2017-04-22T11:22:30.459Z,470
2017-04-22T11:23:11.267Z,460
2017-04-22T11:23:52.287Z,440
2017-04-22T11:24:32.970Z,440
2017-04-22T11:25:13.603Z,445
2017-04-22T11:25:54.507Z,445
2017-04-22T11:26:35.193Z,440
2017-04-22T11:27:16.088Z,440
2017-04-22T11:27:56.682Z,435
2017-04-22T11:28:37.498Z,425
2017-04-22T11:29:18.146Z,420
2017-04-22T11:29:58.921Z,420
2017-04-22T11:30:39.874Z,425
2017-04-22T11:31:20.470Z,415
2017-04-22T11:32:01.056Z,410
2017-04-22T11:32:42.100Z,400
2017-04-22T11:33:22.739Z,415
2017-04-22T11:34:03.311Z,430
2017-04-22T11:34:43.904Z,420
2017-04-22T11:35:24.997Z,415
2017-04-22T11:36:06.044Z,410
2017-04-22T11:36:46.892Z,395
2017-04-22T11:37:27.731Z,370
2017-04-22T11:38:08.305Z,385
2017-04-22T11:38:48.910Z,415
2017-04-22T11:39:29.471Z,435
2017-04-22T11:40:10.044Z,410
2017-04-22T11:40:50.632Z,380
2017-04-22T11:41:31.255Z,360
2017-04-22T11:42:11.824Z,385
2017-04-22T11:42:52.394Z,410
2017-04-22T11:43:33.146Z,395
2017-04-22T11:44:13.748Z,400
2017-04-22T11:44:54.688Z,400
2017-04-22T11:45:35.477Z,375
2017-04-22T11:46:16.441Z,355
2017-04-22T11:46:57.225Z,370
2017-04-22T11:47:37.926Z,390
2017-04-22T11:48:18.510Z,440
2017-04-22T11:48:59.439Z,500
2017-04-22T11:49:40.645Z,500
2017-04-22T11:50:21.506Z,465
2017-04-22T11:51:02.278Z,470
2017-04-22T11:51:43.147Z,485
2017-04-22T11:52:23.739Z,495
2017-04-22T11:53:04.316Z,505
2017-04-22T11:53:45.164Z,520
2017-04-22T11:54:25.803Z,515
2017-04-22T11:55:06.372Z,520
2017-04-22T11:55:46.955Z,540
2017-04-22T11:56:27.535Z,525
2017-04-22T11:57:08.137Z,475
2017-04-22T11:57:48.719Z,440
2017-04-22T11:58:29.314Z,410
2017-04-22T11:59:09.890Z,395
2017-04-22T11:59:50.473Z,400
2017-04-22T12:00:31.053Z,380
2017-04-22T12:01:11.642Z,340
2017-04-22T12:01:52.228Z,320
2017-04-22T12:02:32.812Z,315
2017-04-22T12:03:13.398Z,325
2017-04-22T12:03:53.982Z,345
2017-04-22T12:04:34.566Z,375
2017-04-22T12:05:15.217Z,420
2017-04-22T12:05:55.799Z,425
2017-04-22T12:06:36.399Z,400
2017-04-22T12:07:16.968Z,415
2017-04-22T12:07:57.559Z,460
2017-04-22T12:08:38.154Z,470
2017-04-22T12:09:18.761Z,430
2017-04-22T12:09:59.422Z,425
2017-04-22T12:10:40.015Z,445
2017-04-22T12:11:20.611Z,495
2017-04-22T12:12:01.196Z,540
2017-04-22T12:12:41.795Z,575
2017-04-22T12:13:22.357Z,550
2017-04-22T12:14:02.941Z,525
2017-04-22T12:14:43.617Z,500
2017-04-22T12:15:24.204Z,510
2017-04-22T12:16:04.790Z,535
2017-04-22T12:16:45.401Z,550
2017-04-22T12:17:25.982Z,550
2017-04-22T12:18:06.556Z,545
2017-04-22T12:18:47.152Z,520
2017-04-22T12:19:27.727Z,555
2017-04-22T12:20:08.315Z,595
2017-04-22T12:20:48.899Z,615
2017-04-22T12:21:29.486Z,640
2017-04-22T12:22:10.280Z,625
2017-04-22T12:22:50.868Z,585
2017-04-22T12:23:31.454Z,560
2017-04-22T12:24:12.041Z,565
2017-04-22T12:24:52.624Z,565
2017-04-22T12:25:33.209Z,560
2017-04-22T12:26:13.789Z,565
2017-04-22T12:26:54.385Z,590
2017-04-22T12:27:34.968Z,580
2017-04-22T12:28:15.560Z,520
2017-04-22T12:28:56.144Z,465
2017-04-22T12:29:36.731Z,470
2017-04-22T12:30:17.314Z,530
2017-04-22T12:30:57.915Z,545
2017-04-22T12:31:38.490Z,540
2017-04-22T12:32:19.066Z,540
2017-04-22T12:32:59.649Z,515
2017-04-22T12:33:40.238Z,510
2017-04-22T12:34:20.818Z,500
2017-04-22T12:35:01.401Z,520
2017-04-22T12:35:41.993Z,505
2017-04-22T12:36:22.579Z,480
2017-04-22T12:37:03.158Z,465
2017-04-22T12:37:43.735Z,465
2017-04-22T12:38:24.324Z,475
2017-04-22T12:39:04.908Z,470
2017-04-22T12:39:45.493Z,490
2017-04-22T12:40:26.076Z,515
2017-04-22T12:41:06.660Z,530
2017-04-22T12:41:47.253Z,530
2017-04-22T12:42:27.833Z,530
2017-04-22T12:43:08.410Z,515
2017-04-22T12:43:48.994Z,485
2017-04-22T12:44:29.578Z,475
2017-04-22T12:45:10.166Z,480
2017-04-22T12:45:50.753Z,495
2017-04-22T12:46:31.338Z,515
2017-04-22T12:47:11.918Z,535
2017-04-22T12:47:52.503Z,555
2017-04-22T12:48:33.093Z,570
2017-04-22T12:49:13.678Z,590
2017-04-22T12:49:54.263Z,610
2017-04-22T12:50:34.849Z,630
2017-04-22T12:51:15.429Z,645
2017-04-22T12:51:56.013Z,660
2017-04-22T12:52:36.602Z,670
2017-04-22T12:53:17.176Z,675
2017-04-22T12:53:57.768Z,675
2017-04-22T12:54:38.342Z,670
2017-04-22T12:55:18.929Z,655
2017-04-22T12:55:59.521Z,655
2017-04-22T12:56:40.092Z,655
2017-04-22T12:57:20.706Z,655
2017-04-22T12:58:01.318Z,650
2017-04-22T12:58:41.905Z,640
2017-04-22T12:59:22.486Z,635
2017-04-22T13:00:03.073Z,630
2017-04-22T13:00:43.678Z,625
2017-04-22T13:01:24.262Z,615
2017-04-22T13:02:04.834Z,625
2017-04-22T13:02:45.420Z,635
2017-04-22T13:03:26.030Z,640
2017-04-22T13:04:06.608Z,640
2017-04-22T13:04:47.195Z,640
2017-04-22T13:05:27.781Z,635
2017-04-22T13:06:08.365Z,630
2017-04-22T13:06:48.949Z,625
2017-04-22T13:07:29.533Z,595
2017-04-22T13:08:10.121Z,585
2017-04-22T13:08:50.708Z,580
2017-04-22T13:09:31.291Z,585
2017-04-22T13:10:11.873Z,585
2017-04-22T13:10:52.478Z,590
2017-04-22T13:11:33.076Z,590
2017-04-22T13:12:13.660Z,590
2017-04-22T13:12:54.240Z,600
2017-04-22T13:13:34.822Z,615
2017-04-22T13:14:15.405Z,620
2017-04-22T13:14:55.993Z,630
2017-04-22T13:15:37.741Z,640
2017-04-22T13:16:18.571Z,645
2017-04-22T13:16:59.394Z,650
2017-04-22T13:17:39.980Z,655
2017-04-22T13:18:20.567Z,660
2017-04-22T13:19:01.152Z,660
2017-04-22T13:19:42.009Z,650
2017-04-22T13:20:22.597Z,625
2017-04-22T13:21:03.315Z,615
2017-04-22T13:21:44.191Z,610
2017-04-22T13:22:24.775Z,590
2017-04-22T13:23:05.580Z,565
2017-04-22T13:23:46.168Z,540
2017-04-22T13:24:26.963Z,525
2017-04-22T13:25:07.538Z,520
2017-04-22T13:25:48.128Z,515
2017-04-22T13:26:28.718Z,510
2017-04-22T13:27:09.393Z,500
2017-04-22T13:27:49.986Z,495
2017-04-22T13:28:30.637Z,490
2017-04-22T13:29:11.214Z,485
2017-04-22T13:29:51.803Z,490
2017-04-22T13:30:32.858Z,495
2017-04-22T13:31:13.437Z,505
2017-04-22T13:31:54.021Z,515
2017-04-22T13:32:34.612Z,530
2017-04-22T13:33:15.199Z,540
2017-04-22T13:33:55.834Z,550
2017-04-22T13:34:36.487Z,555
2017-04-22T13:35:17.211Z,560
2017-04-22T13:35:58.072Z,560
2017-04-22T13:36:38.650Z,560
2017-04-22T13:37:19.224Z,565
2017-04-22T13:37:59.906Z,560
2017-04-22T13:38:40.546Z,560
2017-04-22T13:39:21.123Z,560
2017-04-22T13:40:01.711Z,555
2017-04-22T13:40:42.288Z,550
2017-04-22T13:41:22.876Z,550
2017-04-22T13:42:03.465Z,545
2017-04-22T13:42:44.282Z,545
2017-04-22T13:43:24.870Z,550
2017-04-22T13:44:05.538Z,550
2017-04-22T13:44:46.273Z,560
2017-04-22T13:45:26.854Z,560
2017-04-22T13:46:07.446Z,555
2017-04-22T13:46:48.027Z,555
2017-04-22T13:47:28.610Z,545
2017-04-22T13:48:09.187Z,530
2017-04-22T13:48:49.778Z,510
2017-04-22T13:49:30.362Z,500
2017-04-22T13:50:10.948Z,490
2017-04-22T13:50:51.536Z,480
2017-04-22T13:51:32.116Z,470
2017-04-22T13:52:12.703Z,460
2017-04-22T13:52:53.287Z,450
2017-04-22T13:53:33.871Z,440
2017-04-22T13:54:14.454Z,435
2017-04-22T13:54:55.036Z,425
2017-04-22T13:55:35.623Z,420
2017-04-22T13:56:16.221Z,410
2017-04-22T13:56:56.792Z,395
2017-04-22T13:57:37.373Z,375
2017-04-22T13:58:17.960Z,355
2017-04-22T13:58:58.541Z,335
2017-04-22T13:59:39.122Z,320
2017-04-22T14:00:19.705Z,305
2017-04-22T14:01:00.296Z,295
2017-04-22T14:01:40.875Z,285
2017-04-22T14:02:21.473Z,280
2017-04-22T14:03:02.058Z,275
2017-04-22T14:03:42.650Z,270
2017-04-22T14:04:23.231Z,265
2017-04-22T14:05:03.813Z,265
2017-04-22T14:05:44.400Z,260
2017-04-22T14:06:24.983Z,260
2017-04-22T14:07:05.572Z,255
2017-04-22T14:07:46.152Z,255
2017-04-22T14:08:26.744Z,255
2017-04-22T14:09:07.333Z,255
2017-04-22T14:09:47.920Z,255
2017-04-22T14:10:28.508Z,255
2017-04-22T14:11:09.094Z,255
2017-04-22T14:11:49.678Z,255
2017-04-22T14:12:30.275Z,250
2017-04-22T14:13:10.860Z,245
2017-04-22T14:13:51.445Z,245
2017-04-22T14:14:32.026Z,240
2017-04-22T14:15:12.624Z,245
2017-04-22T14:15:53.192Z,245
2017-04-22T14:16:33.789Z,250
2017-04-22T14:17:14.360Z,250
2017-04-22T14:17:54.948Z,255
2017-04-22T14:18:35.527Z,255
2017-04-22T14:19:16.116Z,260
2017-04-22T14:19:56.702Z,265
2017-04-22T14:20:37.289Z,270
2017-04-22T14:21:17.866Z,275
2017-04-22T14:21:58.445Z,280
2017-04-22T14:22:39.021Z,285
2017-04-22T14:23:19.621Z,285
2017-04-22T14:24:00.210Z,285
2017-04-22T14:24:40.787Z,285
2017-04-22T14:25:21.374Z,285
2017-04-22T14:26:01.961Z,285
2017-04-22T14:26:42.534Z,280
2017-04-22T14:27:23.126Z,275
2017-04-22T14:28:03.715Z,265
2017-04-22T14:28:44.299Z,255
2017-04-22T14:29:24.891Z,245
2017-04-22T14:30:05.476Z,230
2017-04-22T14:30:46.061Z,220
2017-04-22T14:31:26.637Z,225
2017-04-22T14:32:07.233Z,235
2017-04-22T14:32:47.819Z,240
2017-04-22T14:33:28.403Z,245
2017-04-22T14:34:08.994Z,245
2017-04-22T14:34:49.581Z,240
2017-04-22T14:35:30.159Z,245
2017-04-22T14:36:10.744Z,250
2017-04-22T14:36:51.338Z,250
2017-04-22T14:37:31.925Z,245
2017-04-22T14:38:12.513Z,245
2017-04-22T14:38:53.086Z,260
2017-04-22T14:39:33.671Z,270
2017-04-22T14:40:14.242Z,275
2017-04-22T14:40:54.827Z,280
2017-04-22T14:41:35.411Z,280
2017-04-22T14:42:16.001Z,280
2017-04-22T14:42:56.583Z,280
2017-04-22T14:43:37.163Z,280
2017-04-22T14:44:17.744Z,280
2017-04-22T14:44:58.638Z,275
2017-04-22T14:45:39.221Z,255
2017-04-22T14:46:20.233Z,235
2017-04-22T14:47:00.890Z,220
2017-04-22T14:47:41.473Z,215
2017-04-22T14:48:22.052Z,225
2017-04-22T14:49:02.631Z,235
2017-04-22T14:49:43.213Z,240
2017-04-22T14:50:23.795Z,235
2017-04-22T14:51:04.668Z,230
2017-04-22T14:51:45.454Z,220
2017-04-22T14:52:26.187Z,210
2017-04-22T14:53:06.771Z,200
2017-04-22T14:53:47.751Z,195
2017-04-22T14:54:28.707Z,185
2017-04-22T14:55:09.807Z,185
2017-04-22T14:55:50.397Z,190
2017-04-22T14:56:30.979Z,200
2017-04-22T14:57:11.566Z,205
2017-04-22T14:57:52.459Z,205
2017-04-22T14:58:33.103Z,210
2017-04-22T14:59:13.831Z,200
2017-04-22T14:59:54.702Z,180
2017-04-22T15:00:35.415Z,160
2017-04-22T15:01:16.105Z,145
2017-04-22T15:01:56.694Z,135
2017-04-22T15:02:37.451Z,125
2017-04-22T15:03:18.357Z,115
2017-04-22T15:03:59.154Z,110
2017-04-22T15:04:39.744Z,105
2017-04-22T15:05:20.579Z,105
2017-04-22T15:06:01.167Z,100
2017-04-22T15:06:41.749Z,100
2017-04-22T15:07:22.338Z,95
2017-04-22T15:08:02.921Z,95
2017-04-22T15:08:43.501Z,90
2017-04-22T15:09:24.092Z,85
2017-04-22T15:10:04.677Z,80
2017-04-22T15:10:45.259Z,75
2017-04-22T15:11:25.847Z,75
2017-04-22T15:12:06.429Z,75
2017-04-22T15:12:47.007Z,70
2017-04-22T15:13:27.583Z,70
2017-04-22T15:14:08.172Z,75
2017-04-22T15:14:48.759Z,75
2017-04-22T15:15:29.409Z,80
2017-04-22T15:16:09.989Z,85
2017-04-22T15:16:50.572Z,90
2017-04-22T15:17:31.652Z,90
2017-04-22T15:18:12.232Z,85
2017-04-22T15:18:52.966Z,85
2017-04-22T15:19:33.542Z,90
2017-04-22T15:20:14.123Z,90
2017-04-22T15:20:54.708Z,95
2017-04-22T15:21:35.301Z,95
2017-04-22T15:22:15.868Z,95
2017-04-22T15:22:56.450Z,95
2017-04-22T15:23:37.039Z,90
2017-04-22T15:24:17.623Z,85
2017-04-22T15:24:58.216Z,80
2017-04-22T15:25:38.789Z,75
2017-04-22T15:26:19.376Z,70
2017-04-22T15:26:59.966Z,65
2017-04-22T15:27:40.551Z,65
2017-04-22T15:28:21.132Z,60
2017-04-22T15:29:01.718Z,60
2017-04-22T15:29:42.587Z,60
2017-04-22T15:30:23.398Z,60
2017-04-22T15:31:04.099Z,60
2017-04-22T15:31:44.673Z,55
2017-04-22T15:32:25.247Z,55
2017-04-22T15:33:05.834Z,55
2017-04-22T15:33:46.423Z,50
2017-04-22T15:34:27.015Z,50
2017-04-22T15:35:07.593Z,55
2017-04-22T15:35:48.172Z,55
2017-04-22T15:36:28.753Z,50
2017-04-22T15:37:09.333Z,50
2017-04-22T15:37:49.920Z,50
2017-04-22T15:38:30.503Z,55
2017-04-22T15:39:11.084Z,60
2017-04-22T15:39:51.664Z,60
2017-04-22T15:40:32.237Z,55
2017-04-22T15:41:13.043Z,50
2017-04-22T15:41:53.612Z,50
2017-04-22T15:42:34.176Z,50
2017-04-22T15:43:14.742Z,55
2017-04-22T15:43:55.329Z,55
2017-04-22T15:44:35.919Z,55
2017-04-22T15:45:16.510Z,60
2017-04-22T15:45:57.100Z,65
2017-04-22T15:46:37.672Z,70
2017-04-22T15:47:18.249Z,65
2017-04-22T15:47:58.830Z,60
2017-04-22T15:48:39.415Z,55
2017-04-22T15:49:19.995Z,50
2017-04-22T15:50:00.580Z,45
2017-04-22T15:50:41.153Z,40
2017-04-22T15:51:21.724Z,45
2017-04-22T15:52:02.305Z,45